Time;durP1;ratioP1;P1;durP2;ratioP2;P2;SDS_P1;SDS_P2;PMS_P1;PMS_P2;Temp;Humidity;BMP_temperature;BMP_pressure;BME280_temperature;BME280_humidity;BME280_pressure;Samples;Min_cycle;Max_cycle;Signal;HPM_P1;HPM_P2
2022/01/19 00:00:09;;;;;;;9.23;4.95;;;;;;;0.19;80.17;98928.16;5034917;28;20521;-62
2022/01/19 00:02:36;;;;;;;11.52;5.20;;;;;;;-0.02;80.86;98931.88;5034417;28;20110;-62
2022/01/19 00:05:08;;;;;;;12.35;4.68;;;;;;;-0.41;81.74;98932.78;5026192;28;20473;-63
2022/01/19 00:07:35;;;;;;;9.18;5.15;;;;;;;-0.66;82.94;98927.09;5009807;28;20045;-62
2022/01/19 00:10:09;;;;;;;11.63;6.13;;;;;;;-0.72;83.65;98923.19;5026022;28;20493;-61
2022/01/19 00:12:36;;;;;;;8.43;5.07;;;;;;;-0.92;82.76;98911.72;5024209;28;20048;-62
2022/01/19 00:15:06;;;;;;;11.07;5.55;;;;;;;-1.02;83.79;98906.38;5026175;28;20053;-62
2022/01/19 00:17:33;;;;;;;14.30;6.50;;;;;;;-1.13;84.90;98904.69;5024734;28;20041;-62
2022/01/19 00:19:59;;;;;;;11.18;6.15;;;;;;;-1.24;84.22;98892.38;5025504;28;20147;-62
2022/01/19 00:22:27;;;;;;;10.30;5.93;;;;;;;-1.26;83.91;98891.66;5022538;28;20042;-63
2022/01/19 00:24:54;;;;;;;12.90;6.18;;;;;;;-1.49;84.31;98899.88;5023439;28;20053;-62
2022/01/19 00:27:20;;;;;;;9.82;5.75;;;;;;;-1.70;85.22;98906.13;5025736;28;20037;-63
2022/01/19 00:29:47;;;;;;;13.63;6.28;;;;;;;-1.79;85.96;98903.41;5027071;28;20092;-61
2022/01/19 00:32:14;;;;;;;10.40;5.90;;;;;;;-1.93;85.75;98916.09;5026543;28;20065;-62
2022/01/19 00:34:40;;;;;;;10.93;6.15;;;;;;;-2.13;86.25;98925.78;5027516;28;20057;-63
2022/01/19 00:37:07;;;;;;;17.98;6.55;;;;;;;-2.16;86.41;98931.34;5027941;28;20045;-62
2022/01/19 00:39:34;;;;;;;13.93;6.95;;;;;;;-2.20;86.41;98937.88;5023929;28;20519;-62
2022/01/19 00:42:00;;;;;;;13.35;7.05;;;;;;;-2.29;86.66;98935.03;5025528;28;20042;-62
2022/01/19 00:44:27;;;;;;;12.90;6.72;;;;;;;-2.14;87.42;98927.59;5025115;28;20049;-62
2022/01/19 00:46:54;;;;;;;14.40;7.40;;;;;;;-2.10;86.77;98923.69;5022047;28;20037;-62
2022/01/19 00:49:20;;;;;;;13.65;7.43;;;;;;;-2.08;86.81;98918.25;5024528;28;20523;-62
2022/01/19 00:51:47;;;;;;;15.13;7.13;;;;;;;-1.82;86.58;98915.16;5025173;28;20548;-62
2022/01/19 00:54:14;;;;;;;11.82;6.78;;;;;;;-1.85;85.66;98908.28;5025192;28;20615;-62
2022/01/19 00:56:41;;;;;;;11.40;6.05;;;;;;;-1.93;85.68;98910.78;5025060;28;20046;-62
2022/01/19 00:59:07;;;;;;;14.20;6.90;;;;;;;-1.91;86.39;98916.81;5025112;28;20034;-63
2022/01/19 01:01:34;;;;;;;10.65;6.10;;;;;;;-1.86;85.63;98914.59;5025837;28;20035;-62
2022/01/19 01:04:01;;;;;;;10.85;6.43;;;;;;;-2.05;86.24;98912.69;5023979;28;20072;-63
2022/01/19 01:06:27;;;;;;;13.05;6.80;;;;;;;-2.26;85.41;98905.59;5025571;28;20045;-63
2022/01/19 01:08:54;;;;;;;11.25;6.80;;;;;;;-2.25;86.61;98909.94;5023903;28;20103;-62
2022/01/19 01:11:28;;;;;;;13.30;6.72;;;;;;;-2.44;86.53;98915.97;5024098;28;20041;-62
2022/01/19 01:16:39;;;;;;;11.82;6.70;;;;;;;-2.54;87.72;98907.94;5025462;28;20046;-62
2022/01/19 01:19:09;;;;;;;13.15;6.35;;;;;;;-2.40;87.37;98903.31;5024067;28;20064;-63
2022/01/19 01:21:37;;;;;;;13.82;7.13;;;;;;;-2.34;87.77;98900.09;5035031;28;20033;-62
2022/01/19 01:24:05;;;;;;;12.05;6.20;;;;;;;-2.44;86.76;98884.13;5024888;28;20045;-62
2022/01/19 01:26:32;;;;;;;14.27;6.93;;;;;;;-2.50;86.09;98861.63;5023794;28;20045;-62
2022/01/19 01:28:58;;;;;;;11.73;6.35;;;;;;;-2.69;86.84;98864.16;5023890;28;20037;-62
2022/01/19 01:31:25;;;;;;;11.23;6.40;;;;;;;-2.81;87.61;98863.38;5039958;28;20057;-62
2022/01/19 01:33:52;;;;;;;10.00;6.05;;;;;;;-2.89;87.89;98864.88;5023834;28;20061;-63
2022/01/19 01:36:19;;;;;;;13.13;5.93;;;;;;;-2.85;88.02;98860.16;5023658;28;20042;-62
2022/01/19 01:38:45;;;;;;;13.48;6.70;;;;;;;-2.76;88.28;98874.44;5023335;28;20523;-62
2022/01/19 01:41:14;;;;;;;14.95;6.88;;;;;;;-2.73;87.67;98883.97;5022837;28;20096;-62
2022/01/19 01:43:53;;;;;;;17.10;7.15;;;;;;;-2.69;88.20;98888.03;5027205;28;20083;-62
2022/01/19 01:46:35;;;;;;;16.45;6.90;;;;;;;-2.73;87.75;98883.97;5026971;28;20053;-63
2022/01/19 01:49:04;;;;;;;11.98;6.15;;;;;;;-2.59;87.77;98882.78;5031230;28;20041;-62
2022/01/19 01:54:17;;;;;;;13.90;6.80;;;;;;;-2.66;86.75;98869.22;5010998;28;20124;-63
2022/01/19 01:56:44;;;;;;;14.05;7.68;;;;;;;-2.87;86.62;98857.63;5024883;28;20046;-62
2022/01/19 01:59:10;;;;;;;11.70;6.82;;;;;;;-3.02;88.12;98851.78;5026333;28;20408;-62
2022/01/19 02:01:41;;;;;;;12.43;6.78;;;;;;;-2.94;88.33;98848.53;5028547;28;20042;-61
2022/01/19 02:04:11;;;;;;;15.83;7.07;;;;;;;-2.75;89.46;98839.84;5043314;28;20065;-63
2022/01/19 02:09:40;;;;;;;9.10;5.22;;;;;;;-2.66;87.91;98837.41;5034425;28;20065;-63
2022/01/19 02:23:23;;;;;;;11.90;6.32;;;;;;;-3.18;88.02;98801.91;5027767;28;20045;-63
2022/01/19 02:25:59;;;;;;;12.60;7.00;;;;;;;-3.27;88.43;98792.88;5027886;28;20060;-62
2022/01/19 02:31:50;;;;;;;13.30;6.85;;;;;;;-3.56;89.90;98774.97;5028283;28;20047;-62
2022/01/19 02:42:34;;;;;;;15.00;7.38;;;;;;;-3.56;88.90;98748.50;5027276;28;20578;-62
2022/01/19 02:49:59;;;;;;;15.98;7.97;;;;;;;-3.71;89.91;98736.53;5029651;28;20420;-62
2022/01/19 02:52:25;;;;;;;13.35;7.30;;;;;;;-3.67;90.18;98736.16;5032565;28;20460;-63
2022/01/19 02:54:52;;;;;;;13.90;6.88;;;;;;;-3.68;89.32;98739.75;5026792;28;20531;-63
2022/01/19 02:57:24;;;;;;;15.48;7.35;;;;;;;-3.94;89.03;98737.44;5025302;28;20033;-63
2022/01/19 03:10:43;;;;;;;12.65;6.78;;;;;;;-3.79;90.33;98714.16;5014375;28;20693;-64
2022/01/19 03:13:10;;;;;;;14.13;6.75;;;;;;;-3.56;90.59;98713.22;5025555;28;20153;-63
2022/01/19 03:15:37;;;;;;;16.30;8.65;;;;;;;-3.34;89.41;98700.81;5026859;28;20040;-63
2022/01/19 03:18:03;;;;;;;13.48;7.18;;;;;;;-3.28;87.03;98697.69;5026081;28;20136;-62
2022/01/19 03:20:30;;;;;;;14.48;7.25;;;;;;;-3.65;88.77;98691.00;5025120;28;20061;-62
2022/01/19 03:23:03;;;;;;;13.23;7.20;;;;;;;-3.74;88.56;98689.97;5025324;28;20045;-63
2022/01/19 03:25:37;;;;;;;13.48;6.75;;;;;;;-3.74;89.14;98681.19;5042054;28;20045;-61
2022/01/19 03:28:04;;;;;;;13.57;7.43;;;;;;;-3.69;89.10;98677.19;5026795;28;20063;-63
2022/01/19 03:30:32;;;;;;;12.10;6.63;;;;;;;-3.80;88.37;98670.13;5025108;28;20136;-62
2022/01/19 03:32:59;;;;;;;15.95;6.63;;;;;;;-3.82;89.41;98674.75;5025581;28;20060;-62
2022/01/19 03:35:26;;;;;;;15.88;6.40;;;;;;;-3.76;89.78;98677.84;5025701;28;20049;-62
2022/01/19 03:37:52;;;;;;;14.27;6.70;;;;;;;-3.83;88.88;98675.69;5026623;28;20042;-62
2022/01/19 03:40:19;;;;;;;16.13;7.90;;;;;;;-3.87;89.06;98671.59;5024699;28;20043;-62
2022/01/19 03:42:46;;;;;;;12.85;6.70;;;;;;;-3.72;89.07;98671.31;5024939;28;20585;-63
2022/01/19 03:45:14;;;;;;;15.55;7.32;;;;;;;-3.81;87.80;98672.91;5010214;28;20085;-63
2022/01/19 03:48:05;;;;;;;17.77;7.88;;;;;;;-3.92;88.86;98666.72;5014454;28;20262;-62
2022/01/19 03:50:36;;;;;;;19.23;8.98;;;;;;;-3.31;89.00;98672.25;5026550;28;20523;-62
2022/01/19 03:53:03;;;;;;;18.35;9.02;;;;;;;-3.20;88.63;98651.97;5024247;28;20432;-62
2022/01/19 03:55:29;;;;;;;11.38;6.30;;;;;;;-3.66;86.48;98655.75;5013417;28;20047;-62
2022/01/19 03:57:56;;;;;;;12.88;6.43;;;;;;;-3.97;88.89;98644.25;5024763;28;20075;-62
2022/01/19 04:00:23;;;;;;;16.55;7.60;;;;;;;-3.94;89.65;98641.34;5025047;28;20067;-62
2022/01/19 04:02:49;;;;;;;19.05;10.50;;;;;;;-3.84;90.12;98642.25;5025453;28;20053;-62
2022/01/19 04:05:38;;;;;;;18.58;8.20;;;;;;;-3.71;90.08;98641.22;5024798;28;20112;-63
2022/01/19 04:08:03;;;;;;;20.92;10.20;;;;;;;-3.65;90.46;98643.34;5024763;28;20132;-62
2022/01/19 04:10:30;;;;;;;18.95;10.40;;;;;;;-3.66;90.06;98642.53;5024775;28;20042;-63
2022/01/19 04:13:09;;;;;;;18.95;9.45;;;;;;;-3.64;90.58;98637.09;5023680;28;20045;-63
2022/01/19 04:15:36;;;;;;;16.45;7.85;;;;;;;-3.66;90.06;98637.22;5022722;28;20046;-63
2022/01/19 04:18:04;;;;;;;18.50;10.07;;;;;;;-3.62;90.03;98621.09;5029670;28;20048;-63
2022/01/19 04:20:37;;;;;;;23.83;9.25;;;;;;;-3.64;90.02;98623.00;5034537;28;20041;-63
2022/01/19 04:23:04;;;;;;;22.20;11.45;;;;;;;-3.73;90.23;98622.81;5031660;28;20243;-62
2022/01/19 04:25:30;;;;;;;19.00;9.85;;;;;;;-3.74;90.36;98621.16;5029021;28;20417;-62
2022/01/19 04:27:57;;;;;;;17.63;9.68;;;;;;;-3.73;90.43;98622.00;5026109;28;20412;-64
2022/01/19 04:30:27;;;;;;;20.05;10.05;;;;;;;-3.76;90.38;98616.97;5026236;28;20436;-63
2022/01/19 04:35:28;;;;;;;20.13;10.73;;;;;;;-3.76;90.26;98606.38;5024991;28;20046;-64
2022/01/19 05:06:07;;;;;;;19.10;9.18;;;;;;;-3.78;89.88;98564.13;5033731;28;20056;-63
2022/01/19 05:13:58;;;;;;;22.20;10.10;;;;;;;-4.03;90.70;98544.22;5024178;28;20137;-63
2022/01/19 05:16:28;;;;;;;15.77;8.90;;;;;;;-4.13;89.73;98547.63;5024419;28;20076;-62
2022/01/19 05:18:55;;;;;;;20.48;8.60;;;;;;;-4.14;89.84;98545.94;5033047;28;20064;-62
2022/01/19 05:21:22;;;;;;;16.77;8.13;;;;;;;-4.00;90.81;98549.22;5027481;28;20038;-62
2022/01/19 05:24:07;;;;;;;22.45;10.10;;;;;;;-3.71;89.48;98545.94;5029929;28;20056;-63
2022/01/19 05:26:37;;;;;;;18.15;8.73;;;;;;;-3.85;88.70;98540.00;5028148;28;20099;-63
2022/01/19 05:29:05;;;;;;;20.08;10.30;;;;;;;-3.95;89.48;98541.75;5030886;28;20140;-62
2022/01/19 05:31:32;;;;;;;18.48;8.23;;;;;;;-3.86;90.84;98540.97;5029046;28;20033;-62
2022/01/19 05:33:59;;;;;;;17.42;9.50;;;;;;;-4.07;89.84;98531.25;5027176;28;20049;-64
2022/01/19 05:36:33;;;;;;;17.02;8.75;;;;;;;-4.02;89.78;98532.66;5027177;28;20136;-63
2022/01/19 05:39:19;;;;;;;24.60;9.23;;;;;;;-3.85;90.00;98528.56;5027431;28;20057;-63
2022/01/19 05:42:15;;;;;;;19.80;8.27;;;;;;;-3.86;90.14;98522.47;5027700;28;20054;-62
2022/01/19 05:44:44;;;;;;;21.30;8.77;;;;;;;-3.92;89.43;98520.31;5027679;28;20049;-63
2022/01/19 05:47:17;;;;;;;22.77;10.25;;;;;;;-3.97;89.96;98515.44;5027171;28;20128;-63
2022/01/19 05:49:44;;;;;;;16.15;8.80;;;;;;;-4.01;89.23;98513.16;5027705;28;20049;-62
2022/01/19 05:52:13;;;;;;;15.77;7.88;;;;;;;-4.13;89.87;98510.59;5027489;28;20042;-64
2022/01/19 05:54:40;;;;;;;14.40;7.57;;;;;;;-4.06;91.06;98516.19;5028922;28;20046;-64
2022/01/19 05:57:08;;;;;;;19.70;8.95;;;;;;;-4.15;89.44;98527.56;5026872;28;20061;-62
2022/01/19 05:59:41;;;;;;;20.33;8.30;;;;;;;-4.15;90.83;98528.41;5027441;28;20132;-63
2022/01/19 06:02:08;;;;;;;21.63;8.27;;;;;;;-4.34;90.28;98529.97;5005180;28;20064;-64
2022/01/19 06:04:35;;;;;;;19.48;9.27;;;;;;;-4.39;90.58;98524.19;5027458;28;20045;-63
2022/01/19 06:07:08;;;;;;;18.13;7.18;;;;;;;-4.28;91.54;98518.00;5027385;28;20048;-63
2022/01/19 06:12:59;;;;;;;19.23;9.40;;;;;;;-3.44;90.80;98520.69;5027035;28;20041;-63
2022/01/19 06:15:26;;;;;;;24.73;10.85;;;;;;;-3.42;89.60;98510.81;5024801;28;20045;-70
2022/01/19 06:17:53;;;;;;;24.27;11.18;;;;;;;-3.22;89.53;98517.00;5027538;28;20041;-65
2022/01/19 06:20:19;;;;;;;15.57;8.93;;;;;;;-3.74;87.71;98504.69;5026866;28;20125;-64
2022/01/19 06:22:46;;;;;;;16.35;7.65;;;;;;;-4.12;88.92;98512.28;5026797;28;20045;-64
2022/01/19 06:25:13;;;;;;;17.08;8.93;;;;;;;-4.25;89.79;98509.81;5023255;28;20067;-64
2022/01/19 06:27:40;;;;;;;21.50;9.38;;;;;;;-4.04;91.02;98514.28;5024527;28;20065;-64
2022/01/19 06:30:11;;;;;;;19.70;8.85;;;;;;;-3.92;91.04;98517.66;5021712;28;20133;-64
2022/01/19 06:32:39;;;;;;;21.25;9.93;;;;;;;-3.91;89.75;98503.47;5030318;28;20037;-64
2022/01/19 06:35:07;;;;;;;19.88;9.27;;;;;;;-3.82;89.76;98501.84;5036820;28;20072;-64
2022/01/19 06:37:57;;;;;;;19.30;9.65;;;;;;;-3.71;89.48;98501.78;5041322;28;20088;-64
2022/01/19 06:40:36;;;;;;;19.65;7.78;;;;;;;-3.82;89.39;98502.69;5033164;28;20065;-64
2022/01/19 06:43:03;;;;;;;16.35;8.27;;;;;;;-3.88;88.85;98508.50;5034769;28;20095;-64
2022/01/19 06:45:30;;;;;;;17.73;8.40;;;;;;;-3.85;nan;98495.00;5024676;28;20037;-64
2022/01/19 06:47:57;;;;;;;14.95;8.90;;;;;;;-3.69;91.00;98491.06;5024554;28;20139;-64
2022/01/19 06:50:25;;;;;;;23.75;10.18;;;;;;;-3.45;90.22;98495.16;5025389;28;20605;-63
2022/01/19 06:52:51;;;;;;;20.23;11.65;;;;;;;-3.40;88.43;98485.84;5018409;28;20062;-64
2022/01/19 06:55:18;;;;;;;24.65;10.38;;;;;;;-3.37;89.23;98492.69;5028672;28;20049;-64
2022/01/19 06:57:45;;;;;;;30.40;14.95;;;;;;;-3.05;90.19;98489.00;5025199;28;20073;-63
2022/01/19 07:00:31;;;;;;;23.95;13.07;;;;;;;-2.92;89.05;98490.53;5018259;28;20288;-64
2022/01/19 07:03:07;;;;;;;28.17;13.73;;;;;;;-2.72;89.09;98483.47;5024008;28;20057;-64
2022/01/19 07:05:56;;;;;;;26.10;12.80;;;;;;;-2.69;88.75;98487.66;5019110;28;20053;-65
2022/01/19 07:08:43;;;;;;;24.23;12.93;;;;;;;-2.66;88.84;98484.72;5017456;28;20058;-64
2022/01/19 07:11:10;;;;;;;22.38;11.25;;;;;;;-2.56;88.46;98482.91;5023592;28;20077;-64
2022/01/19 07:13:37;;;;;;;22.52;11.50;;;;;;;-2.59;88.25;98480.53;5026602;28;20456;-64
2022/01/19 07:16:04;;;;;;;27.77;13.85;;;;;;;-2.59;88.35;98472.56;5022112;28;20045;-64
2022/01/19 07:18:31;;;;;;;24.52;11.55;;;;;;;-2.53;88.00;98461.41;5026481;28;20184;-64
2022/01/19 07:20:59;;;;;;;26.60;11.63;;;;;;;-2.54;88.39;98472.16;5023655;28;20045;-67
2022/01/19 07:23:42;;;;;;;24.27;11.25;;;;;;;-2.44;88.00;98472.97;5026823;28;20057;-68
2022/01/19 07:26:11;;;;;;;25.00;11.88;;;;;;;-2.47;87.30;98465.28;5024305;28;20049;-67
2022/01/19 07:28:37;;;;;;;23.38;11.88;;;;;;;-2.54;87.76;98469.50;5039953;28;20045;-67
2022/01/19 07:31:04;;;;;;;23.48;11.98;;;;;;;-2.61;87.29;98467.41;5043600;28;20107;-67
2022/01/19 07:33:32;;;;;;;25.80;11.23;;;;;;;-2.73;87.57;98467.69;5029781;28;20095;-66
2022/01/19 07:35:59;;;;;;;24.73;12.80;;;;;;;-2.75;88.18;98463.38;5039214;28;20041;-67
2022/01/19 07:38:26;;;;;;;24.73;13.27;;;;;;;-2.78;88.30;98462.78;5025786;28;20045;-66
2022/01/19 07:40:54;;;;;;;25.42;13.35;;;;;;;-2.76;88.52;98461.69;5024832;28;20095;-66
2022/01/19 07:43:22;;;;;;;65.03;31.10;;;;;;;-2.84;88.14;98463.38;5025543;28;20142;-66
2022/01/19 07:46:07;;;;;;;68.13;33.47;;;;;;;-2.88;88.34;98454.84;5028237;28;20111;-66
2022/01/19 07:49:00;;;;;;;26.92;13.10;;;;;;;-2.90;88.73;98456.81;5031041;28;20048;-66
2022/01/19 07:51:56;;;;;;;28.63;14.13;;;;;;;-3.11;88.64;98457.75;5014749;28;20119;-66
2022/01/19 07:54:27;;;;;;;29.00;12.45;;;;;;;-2.85;89.05;98451.91;5026372;28;20530;-65
2022/01/19 07:57:17;;;;;;;21.77;11.57;;;;;;;-2.67;88.47;98445.91;5006104;28;20093;-66
2022/01/19 08:00:03;;;;;;;22.02;12.15;;;;;;;-2.55;88.34;98447.44;5026361;28;20119;-65
2022/01/19 08:02:43;;;;;;;24.55;12.93;;;;;;;-2.44;88.05;98446.44;5024330;28;20540;-65
2022/01/19 08:05:10;;;;;;;22.67;12.07;;;;;;;-2.32;88.13;98446.31;5030501;28;20053;-65
2022/01/19 08:07:38;;;;;;;40.50;21.52;;;;;;;-2.29;87.29;98446.84;5021839;28;20512;-66
2022/01/19 08:10:07;;;;;;;25.17;12.50;;;;;;;-2.13;87.79;98448.06;5021204;28;20376;-65
2022/01/19 08:12:34;;;;;;;25.25;13.70;;;;;;;-2.16;86.36;98445.69;5022698;28;20398;-66
2022/01/19 08:15:01;;;;;;;28.05;13.25;;;;;;;-2.22;86.86;98449.75;5021567;28;20047;-66
2022/01/19 08:17:32;;;;;;;20.40;12.67;;;;;;;-2.21;86.78;98454.09;5024973;28;20095;-65
2022/01/19 08:19:58;;;;;;;26.85;14.10;;;;;;;-2.18;86.79;98453.78;5028446;28;20927;-65
2022/01/19 08:22:25;;;;;;;29.90;17.60;;;;;;;-2.23;87.13;98456.91;5033145;28;20040;-65
2022/01/19 08:25:12;;;;;;;26.38;14.82;;;;;;;-2.13;87.59;98453.38;5024631;28;20049;-66
2022/01/19 08:27:39;;;;;;;32.42;18.75;;;;;;;-2.07;87.04;98449.31;5025398;28;20060;-66
2022/01/19 08:30:09;;;;;;;34.05;18.17;;;;;;;-2.14;87.40;98441.09;5024552;28;20049;-66
2022/01/19 08:32:36;;;;;;;29.63;16.52;;;;;;;-2.13;87.26;98440.94;5025059;28;20033;-66
2022/01/19 08:35:25;;;;;;;25.52;13.23;;;;;;;-2.04;87.44;98444.56;5023987;28;20053;-65
2022/01/19 08:38:01;;;;;;;25.73;14.30;;;;;;;-1.89;86.95;98452.88;5020321;28;20049;-66
2022/01/19 08:40:36;;;;;;;28.67;14.35;;;;;;;-1.87;86.81;98445.63;5024452;28;20042;-67
2022/01/19 08:43:22;;;;;;;27.40;13.07;;;;;;;-1.79;86.77;98449.34;5023869;28;20068;-65
2022/01/19 08:45:49;;;;;;;23.92;13.27;;;;;;;-1.75;86.47;98451.59;5023609;28;20565;-65
2022/01/19 08:48:20;;;;;;;28.42;14.07;;;;;;;-1.72;86.48;98443.34;5028263;28;20145;-66
2022/01/19 08:50:52;;;;;;;;;;;;;;;-1.67;85.82;98447.38;5017228;28;20452;-66
2022/01/19 08:53:40;;;;;;;25.55;13.68;;;;;;;-1.59;86.58;98432.34;5023806;28;20447;-66
2022/01/19 08:56:21;;;;;;;29.17;13.60;;;;;;;-1.53;85.91;98438.91;5028228;28;20041;-65
2022/01/19 08:58:48;;;;;;;32.17;16.27;;;;;;;-1.46;85.92;98441.78;5023586;28;20072;-66
2022/01/19 09:01:15;;;;;;;25.77;13.77;;;;;;;-1.35;85.37;98446.06;5023893;28;20721;-66
2022/01/19 09:03:42;;;;;;;27.05;13.27;;;;;;;-1.32;84.99;98448.44;5023163;28;20127;-66
2022/01/19 09:06:09;;;;;;;23.98;13.35;;;;;;;-1.22;85.27;98451.03;5012841;28;21698;-67
2022/01/19 09:08:35;;;;;;;34.90;18.63;;;;;;;-1.14;85.84;98444.97;5033894;28;20152;-67
2022/01/19 09:11:02;;;;;;;26.98;14.05;;;;;;;-1.11;84.52;98448.16;5035063;28;20049;-66
2022/01/19 09:13:29;;;;;;;24.88;13.70;;;;;;;-1.07;84.89;98451.38;5016577;28;20033;-66
2022/01/19 09:15:56;;;;;;;27.52;13.05;;;;;;;-0.91;85.06;98450.69;5003518;28;20059;-67
2022/01/19 09:18:23;;;;;;;27.05;13.75;;;;;;;-0.84;83.74;98451.75;5030364;28;20045;-67
2022/01/19 09:20:49;;;;;;;30.15;15.98;;;;;;;-0.79;84.12;98440.66;5014250;28;20041;-66
2022/01/19 09:23:16;;;;;;;29.55;15.52;;;;;;;-0.70;83.84;98442.38;5032704;28;20049;-67
2022/01/19 09:25:43;;;;;;;22.60;11.52;;;;;;;-0.59;83.23;98443.97;5036326;28;20050;-67
2022/01/19 09:28:10;;;;;;;23.58;12.57;;;;;;;-0.52;82.76;98444.19;5020332;28;20107;-66
2022/01/19 09:30:37;;;;;;;22.60;11.63;;;;;;;-0.43;82.72;98440.63;5025120;28;20045;-67
2022/01/19 09:33:09;;;;;;;22.55;12.07;;;;;;;-0.33;81.95;98439.69;5023455;28;20529;-66
2022/01/19 09:38:36;;;;;;;22.60;11.57;;;;;;;-0.16;82.04;98425.50;5025479;28;20429;-66
2022/01/19 09:41:05;;;;;;;18.17;10.60;;;;;;;-0.09;80.33;98425.72;5025626;28;20033;-66
2022/01/19 09:43:33;;;;;;;18.80;10.85;;;;;;;-0.03;80.60;98421.59;5025583;28;20464;-66
2022/01/19 09:46:00;;;;;;;18.85;10.05;;;;;;;0.03;81.07;98414.81;5014187;28;21626;-67
2022/01/19 09:48:28;;;;;;;18.45;9.43;;;;;;;0.12;80.68;98416.50;5026568;28;20080;-67
2022/01/19 09:50:56;;;;;;;20.13;10.05;;;;;;;0.27;80.24;98407.91;5026798;28;20431;-65
2022/01/19 09:53:24;;;;;;;17.00;9.73;;;;;;;0.35;79.98;98414.13;5026901;28;20045;-67
2022/01/19 09:55:51;;;;;;;18.40;10.05;;;;;;;0.38;78.97;98399.63;5020680;28;20041;-66
2022/01/19 09:58:21;;;;;;;19.50;10.00;;;;;;;0.44;79.29;98406.16;5022491;28;20704;-66
2022/01/19 10:00:49;;;;;;;16.40;9.40;;;;;;;0.51;79.27;98399.16;5022197;28;20052;-66
2022/01/19 10:03:23;;;;;;;20.05;10.85;;;;;;;0.60;79.39;98398.22;5023379;28;20049;-67
2022/01/19 10:06:09;;;;;;;17.90;10.48;;;;;;;0.68;78.60;98392.06;5023418;28;20060;-67
2022/01/19 10:08:50;;;;;;;15.73;8.93;;;;;;;0.80;78.52;98389.09;5026852;28;20053;-67
2022/01/19 10:17:02;;;;;;;14.23;8.10;;;;;;;1.02;77.21;98366.28;5044722;28;20041;-66
2022/01/19 10:19:48;;;;;;;16.13;7.90;;;;;;;1.08;76.58;98354.97;5018249;28;20030;-67
2022/01/19 10:22:20;;;;;;;16.13;7.97;;;;;;;1.19;76.34;98359.13;5039627;28;20041;-67
2022/01/19 10:24:56;;;;;;;14.88;8.70;;;;;;;1.22;75.79;98341.94;5044284;28;20466;-67
2022/01/19 10:27:22;;;;;;;15.10;7.82;;;;;;;1.32;76.15;98339.94;5022689;28;20416;-67
2022/01/19 10:30:10;;;;;;;15.25;8.07;;;;;;;1.42;75.08;98334.41;5031390;28;20051;-67
2022/01/19 10:32:40;;;;;;;15.82;9.02;;;;;;;1.48;75.38;98330.25;5020748;28;20127;-68
2022/01/19 10:35:26;;;;;;;13.20;7.70;;;;;;;1.52;75.82;98332.38;5016521;28;20547;-66
2022/01/19 10:38:15;;;;;;;14.48;8.50;;;;;;;1.64;73.84;98324.03;5043567;28;20037;-66
2022/01/19 10:41:04;;;;;;;17.45;7.38;;;;;;;1.61;74.65;98322.53;5029916;28;20048;-67
2022/01/19 10:43:36;;;;;;;16.50;7.60;;;;;;;1.65;74.71;98321.19;5018111;28;20034;-67
2022/01/19 10:46:23;;;;;;;12.75;6.88;;;;;;;1.70;74.05;98315.34;5022026;28;20056;-66
2022/01/19 10:49:00;;;;;;;11.93;6.57;;;;;;;1.72;73.85;98321.34;5031112;28;20055;-66
2022/01/19 10:51:46;;;;;;;13.23;6.72;;;;;;;1.77;74.20;98313.66;5014586;28;20406;-65
2022/01/19 10:54:19;;;;;;;11.23;6.28;;;;;;;1.84;73.66;98318.31;5022826;28;20619;-65
2022/01/19 10:56:49;;;;;;;13.85;6.63;;;;;;;1.81;73.73;98314.97;5030281;28;20067;-65
2022/01/19 10:59:18;;;;;;;11.02;6.93;;;;;;;1.95;73.08;98305.41;5034285;28;20117;-66
2022/01/19 11:01:52;;;;;;;11.85;6.53;;;;;;;2.11;72.53;98306.34;5025796;28;20045;-65
2022/01/19 11:04:26;;;;;;;13.27;6.45;;;;;;;2.14;72.29;98305.16;5023704;28;20041;-64
2022/01/19 11:06:58;;;;;;;9.88;5.97;;;;;;;2.28;70.51;98307.09;5023999;28;20052;-65
2022/01/19 11:09:28;;;;;;;11.10;5.95;;;;;;;2.38;70.71;98308.72;5012400;28;20073;-65
2022/01/19 11:12:10;;;;;;;11.43;6.68;;;;;;;2.45;70.22;98309.69;5025421;28;20078;-67
2022/01/19 11:14:37;;;;;;;11.48;6.68;;;;;;;2.49;70.72;98313.66;5019730;28;20046;-66
2022/01/19 11:17:24;;;;;;;12.32;6.40;;;;;;;2.47;69.94;98321.84;5023700;28;20215;-66
2022/01/19 11:19:51;;;;;;;12.95;7.88;;;;;;;2.50;70.39;98307.31;5013117;28;20049;-66
2022/01/19 11:22:34;;;;;;;14.50;6.65;;;;;;;2.55;70.67;98296.91;5023616;28;20724;-66
2022/01/19 11:25:09;;;;;;;11.32;6.75;;;;;;;2.60;70.20;98293.72;5025150;28;20049;-65
2022/01/19 11:27:55;;;;;;;12.00;7.00;;;;;;;2.59;70.86;98290.19;5020788;28;20073;-66
2022/01/19 11:30:28;;;;;;;10.82;5.25;;;;;;;2.71;70.68;98290.63;5025614;28;20563;-66
2022/01/19 11:33:10;;;;;;;9.77;5.75;;;;;;;2.76;69.62;98289.25;5024210;28;20111;-65
2022/01/19 11:35:37;;;;;;;;;;;;;;;2.70;71.00;98282.78;5013395;28;20041;-65
2022/01/19 11:38:45;;;;;;;13.95;6.53;;;;;;;2.77;70.37;98286.41;5026663;28;19971;-66
2022/01/19 11:41:15;;;;;;;11.68;6.18;;;;;;;2.72;70.27;98284.25;5026711;28;20056;-66
2022/01/19 11:43:52;;;;;;;10.70;6.00;;;;;;;2.78;71.33;98277.38;5026102;28;20037;-66
2022/01/19 11:46:31;;;;;;;9.73;5.45;;;;;;;2.79;70.35;98283.53;5026641;28;20484;-66
2022/01/19 11:48:59;;;;;;;10.95;4.90;;;;;;;2.84;69.93;98282.00;5026580;28;20120;-65
2022/01/19 11:51:36;;;;;;;9.35;5.50;;;;;;;2.86;69.72;98271.97;5022889;28;20045;-65
2022/01/19 11:54:08;;;;;;;11.18;6.60;;;;;;;2.84;70.46;98270.47;5030066;28;20037;-65
2022/01/19 11:56:53;;;;;;;;;;;;;;;2.89;70.27;98260.06;5032464;28;20033;-67
2022/01/19 11:59:21;;;;;;;10.82;5.88;;;;;;;2.90;69.98;98253.69;5024288;28;19932;-66
2022/01/19 12:01:48;;;;;;;12.27;6.63;;;;;;;2.94;69.85;98244.28;5027255;28;20037;-65
2022/01/19 12:04:20;;;;;;;12.63;6.82;;;;;;;2.95;69.87;98245.13;5025193;28;20045;-66
2022/01/19 12:06:47;;;;;;;12.27;6.93;;;;;;;2.97;69.77;98237.75;5026193;28;20418;-65
2022/01/19 12:09:16;;;;;;;12.13;6.13;;;;;;;3.01;69.78;98231.03;5025765;28;20339;-66
2022/01/19 12:11:51;;;;;;;13.32;8.27;;;;;;;3.21;70.22;98234.00;5024952;28;20045;-66
2022/01/19 12:14:23;;;;;;;12.38;6.57;;;;;;;3.33;68.94;98231.72;5026873;28;20451;-65
2022/01/19 12:17:07;;;;;;;11.13;6.37;;;;;;;3.48;67.79;98220.16;5027714;28;20311;-65
2022/01/19 12:19:42;;;;;;;14.68;6.32;;;;;;;3.63;67.97;98206.78;5022240;28;20428;-66
2022/01/19 12:22:21;;;;;;;10.95;5.53;;;;;;;3.70;67.38;98206.84;5018067;28;20050;-66
2022/01/19 12:24:59;;;;;;;9.77;6.13;;;;;;;3.77;67.81;98208.59;5026250;28;20695;-65
2022/01/19 12:27:27;;;;;;;13.98;6.32;;;;;;;3.95;67.59;98214.59;5032215;28;20736;-65
2022/01/19 12:30:05;;;;;;;11.00;6.00;;;;;;;3.97;65.69;98215.22;5031343;28;20052;-65
2022/01/19 12:32:33;;;;;;;9.13;4.72;;;;;;;3.97;65.14;98212.53;5021296;28;20634;-65
2022/01/19 12:35:13;;;;;;;12.50;6.38;;;;;;;4.06;65.37;98213.25;5021044;28;20423;-65
2022/01/19 12:37:40;;;;;;;10.60;5.00;;;;;;;3.95;64.17;98215.44;5012826;28;20038;-66
2022/01/19 12:40:26;;;;;;;8.45;4.40;;;;;;;3.84;64.73;98208.66;5027778;28;20045;-67
2022/01/19 12:43:01;;;;;;;9.27;4.97;;;;;;;3.72;64.56;98194.94;5023020;28;20615;-66
2022/01/19 12:45:30;;;;;;;10.93;6.47;;;;;;;3.73;65.09;98193.91;5014989;28;20041;-66
2022/01/19 12:47:59;;;;;;;10.02;4.85;;;;;;;3.60;65.13;98191.91;5023756;28;20515;-67
2022/01/19 12:50:36;;;;;;;9.77;4.38;;;;;;;3.53;65.40;98201.69;5021264;28;20049;-68
2022/01/19 12:53:09;;;;;;;11.40;6.63;;;;;;;3.65;65.43;98196.72;5022366;28;20564;-66
2022/01/19 12:55:41;;;;;;;10.18;5.00;;;;;;;3.68;64.97;98199.00;5026046;28;20056;-67
2022/01/19 12:58:35;;;;;;;14.13;7.78;;;;;;;3.71;65.11;98193.28;5023014;28;20044;-67
2022/01/19 13:01:09;;;;;;;8.98;4.63;;;;;;;3.71;64.40;98206.69;5016695;28;20049;-67
2022/01/19 13:03:42;;;;;;;10.45;5.13;;;;;;;3.80;64.27;98196.69;5022942;28;20037;-66
2022/01/19 13:06:13;;;;;;;10.32;4.85;;;;;;;3.81;64.75;98186.78;5030540;28;20056;-67
2022/01/19 13:08:55;;;;;;;6.57;3.23;;;;;;;3.64;64.78;98189.69;5023017;28;20065;-67
2022/01/19 13:11:37;;;;;;;9.10;5.05;;;;;;;3.59;65.05;98178.69;5027840;28;20281;-67
2022/01/19 13:14:07;;;;;;;7.55;3.88;;;;;;;3.64;64.89;98176.28;5025964;28;20492;-66
2022/01/19 13:16:54;;;;;;;8.35;4.38;;;;;;;3.63;64.14;98174.63;5033538;28;20512;-66
2022/01/19 13:19:23;;;;;;;5.40;2.97;;;;;;;3.87;63.36;98164.63;5024789;28;20468;-66
2022/01/19 13:22:01;;;;;;;5.55;3.38;;;;;;;3.99;62.96;98163.13;5024580;28;20037;-66